sensor_id;sensor_type;location;lat;lon;timestamp;P1;P2;P0
61592;PMS5003;70568;51.378;-1.342;2023-08-20T00:00:04;8;7;
61592;PMS5003;70568;51.378;-1.342;2023-08-20T00:02:31;7;6;
61592;PMS5003;70568;51.378;-1.342;2023-08-20T00:04:59;12;8;
61592;PMS5003;70568;51.378;-1.342;2023-08-20T00:07:28;11;10;
61592;PMS5003;70568;51.378;-1.342;2023-08-20T00:09:55;6;6;
61592;PMS5003;70568;51.378;-1.342;2023-08-20T00:12:22;8;8;
61592;PMS5003;70568;51.378;-1.342;2023-08-20T00:14:52;10;10;
61592;PMS5003;70568;51.378;-1.342;2023-08-20T00:17:21;8;6;
61592;PMS5003;70568;51.378;-1.342;2023-08-20T00:19:48;6;6;
61592;PMS5003;70568;51.378;-1.342;2023-08-20T00:22:16;12;10;
61592;PMS5003;70568;51.378;-1.342;2023-08-20T00:24:44;9;8;
61592;PMS5003;70568;51.378;-1.342;2023-08-20T00:27:11;11;9;
61592;PMS5003;70568;51.378;-1.342;2023-08-20T00:29:38;11;10;
61592;PMS5003;70568;51.378;-1.342;2023-08-20T00:32:05;12;8;
61592;PMS5003;70568;51.378;-1.342;2023-08-20T00:34:32;11;9;
61592;PMS5003;70568;51.378;-1.342;2023-08-20T00:36:58;9;7;
61592;PMS5003;70568;51.378;-1.342;2023-08-20T00:39:25;10;8;
61592;PMS5003;70568;51.378;-1.342;2023-08-20T00:41:52;7;6;
61592;PMS5003;70568;51.378;-1.342;2023-08-20T00:44:19;7;6;
61592;PMS5003;70568;51.378;-1.342;2023-08-20T00:46:46;10;8;
61592;PMS5003;70568;51.378;-1.342;2023-08-20T00:49:14;6;6;
61592;PMS5003;70568;51.378;-1.342;2023-08-20T00:51:41;7;7;
61592;PMS5003;70568;51.378;-1.342;2023-08-20T00:54:08;8;8;
61592;PMS5003;70568;51.378;-1.342;2023-08-20T00:56:36;9;6;
61592;PMS5003;70568;51.378;-1.342;2023-08-20T00:59:04;8;6;
61592;PMS5003;70568;51.378;-1.342;2023-08-20T01:01:32;8;7;
61592;PMS5003;70568;51.378;-1.342;2023-08-20T01:03:59;8;6;
61592;PMS5003;70568;51.378;-1.342;2023-08-20T01:06:27;8;6;
61592;PMS5003;70568;51.378;-1.342;2023-08-20T01:09:05;7;6;
61592;PMS5003;70568;51.378;-1.342;2023-08-20T01:11:47;10;7;
61592;PMS5003;70568;51.378;-1.342;2023-08-20T01:14:18;6;6;
61592;PMS5003;70568;51.378;-1.342;2023-08-20T01:16:45;6;6;
61592;PMS5003;70568;51.378;-1.342;2023-08-20T01:19:17;9;8;
61592;PMS5003;70568;51.378;-1.342;2023-08-20T01:21:47;6;6;
61592;PMS5003;70568;51.378;-1.342;2023-08-20T01:24:25;9;8;
61592;PMS5003;70568;51.378;-1.342;2023-08-20T01:27:08;7;6;
61592;PMS5003;70568;51.378;-1.342;2023-08-20T01:29:45;7;6;
61592;PMS5003;70568;51.378;-1.342;2023-08-20T01:32:12;10;8;
61592;PMS5003;70568;51.378;-1.342;2023-08-20T01:34:39;8;7;
61592;PMS5003;70568;51.378;-1.342;2023-08-20T01:37:06;8;8;
61592;PMS5003;70568;51.378;-1.342;2023-08-20T01:39:32;8;6;
61592;PMS5003;70568;51.378;-1.342;2023-08-20T01:41:58;8;6;
61592;PMS5003;70568;51.378;-1.342;2023-08-20T01:44:25;10;9;
61592;PMS5003;70568;51.378;-1.342;2023-08-20T01:46:51;9;9;
61592;PMS5003;70568;51.378;-1.342;2023-08-20T01:49:18;12;8;
61592;PMS5003;70568;51.378;-1.342;2023-08-20T01:51:44;10;8;
61592;PMS5003;70568;51.378;-1.342;2023-08-20T01:54:11;13;8;
61592;PMS5003;70568;51.378;-1.342;2023-08-20T01:56:38;8;8;
61592;PMS5003;70568;51.378;-1.342;2023-08-20T01:59:05;8;7;
61592;PMS5003;70568;51.378;-1.342;2023-08-20T02:01:31;8;7;
61592;PMS5003;70568;51.378;-1.342;2023-08-20T02:03:58;14;9;
61592;PMS5003;70568;51.378;-1.342;2023-08-20T02:06:25;7;6;
61592;PMS5003;70568;51.378;-1.342;2023-08-20T02:08:51;12;9;
61592;PMS5003;70568;51.378;-1.342;2023-08-20T02:11:18;9;8;
61592;PMS5003;70568;51.378;-1.342;2023-08-20T02:13:44;8;8;
61592;PMS5003;70568;51.378;-1.342;2023-08-20T02:16:10;10;8;
61592;PMS5003;70568;51.378;-1.342;2023-08-20T02:18:38;9;8;
61592;PMS5003;70568;51.378;-1.342;2023-08-20T02:21:05;7;6;
61592;PMS5003;70568;51.378;-1.342;2023-08-20T02:23:31;8;7;
61592;PMS5003;70568;51.378;-1.342;2023-08-20T02:25:59;6;6;
61592;PMS5003;70568;51.378;-1.342;2023-08-20T02:28:26;8;7;
61592;PMS5003;70568;51.378;-1.342;2023-08-20T02:30:52;8;7;
61592;PMS5003;70568;51.378;-1.342;2023-08-20T02:33:19;7;6;
61592;PMS5003;70568;51.378;-1.342;2023-08-20T02:35:45;8;8;
61592;PMS5003;70568;51.378;-1.342;2023-08-20T02:38:12;6;6;
61592;PMS5003;70568;51.378;-1.342;2023-08-20T02:40:39;11;8;
61592;PMS5003;70568;51.378;-1.342;2023-08-20T02:43:06;8;8;
61592;PMS5003;70568;51.378;-1.342;2023-08-20T02:45:38;9;6;
61592;PMS5003;70568;51.378;-1.342;2023-08-20T02:48:06;10;8;
61592;PMS5003;70568;51.378;-1.342;2023-08-20T02:50:32;8;6;
61592;PMS5003;70568;51.378;-1.342;2023-08-20T02:52:59;7;7;
61592;PMS5003;70568;51.378;-1.342;2023-08-20T02:55:25;10;9;
61592;PMS5003;70568;51.378;-1.342;2023-08-20T02:57:52;10;9;
61592;PMS5003;70568;51.378;-1.342;2023-08-20T03:00:19;9;9;
61592;PMS5003;70568;51.378;-1.342;2023-08-20T03:02:45;9;8;
61592;PMS5003;70568;51.378;-1.342;2023-08-20T03:05:13;8;8;
61592;PMS5003;70568;51.378;-1.342;2023-08-20T03:07:39;11;9;
61592;PMS5003;70568;51.378;-1.342;2023-08-20T03:10:06;9;8;
61592;PMS5003;70568;51.378;-1.342;2023-08-20T03:12:33;11;10;
61592;PMS5003;70568;51.378;-1.342;2023-08-20T03:15:00;11;9;
61592;PMS5003;70568;51.378;-1.342;2023-08-20T03:17:26;11;7;
61592;PMS5003;70568;51.378;-1.342;2023-08-20T03:19:53;12;10;
61592;PMS5003;70568;51.378;-1.342;2023-08-20T03:22:20;10;9;
61592;PMS5003;70568;51.378;-1.342;2023-08-20T03:24:47;10;9;
61592;PMS5003;70568;51.378;-1.342;2023-08-20T03:27:14;12;10;
61592;PMS5003;70568;51.378;-1.342;2023-08-20T03:29:40;11;11;
61592;PMS5003;70568;51.378;-1.342;2023-08-20T03:32:07;9;9;
61592;PMS5003;70568;51.378;-1.342;2023-08-20T03:34:33;12;12;
61592;PMS5003;70568;51.378;-1.342;2023-08-20T03:37:00;8;8;
61592;PMS5003;70568;51.378;-1.342;2023-08-20T03:39:27;11;10;
61592;PMS5003;70568;51.378;-1.342;2023-08-20T03:41:54;7;7;
61592;PMS5003;70568;51.378;-1.342;2023-08-20T03:44:21;11;10;
61592;PMS5003;70568;51.378;-1.342;2023-08-20T03:46:47;10;9;
61592;PMS5003;70568;51.378;-1.342;2023-08-20T03:49:14;10;10;
61592;PMS5003;70568;51.378;-1.342;2023-08-20T03:51:41;9;8;
61592;PMS5003;70568;51.378;-1.342;2023-08-20T03:54:08;11;11;
61592;PMS5003;70568;51.378;-1.342;2023-08-20T03:56:35;7;7;
61592;PMS5003;70568;51.378;-1.342;2023-08-20T03:59:02;10;8;
61592;PMS5003;70568;51.378;-1.342;2023-08-20T04:01:29;11;8;
61592;PMS5003;70568;51.378;-1.342;2023-08-20T04:03:55;10;8;
61592;PMS5003;70568;51.378;-1.342;2023-08-20T04:06:22;9;8;
61592;PMS5003;70568;51.378;-1.342;2023-08-20T04:08:48;8;6;
61592;PMS5003;70568;51.378;-1.342;2023-08-20T04:11:15;7;7;
61592;PMS5003;70568;51.378;-1.342;2023-08-20T04:13:42;9;8;
61592;PMS5003;70568;51.378;-1.342;2023-08-20T04:16:09;10;9;
61592;PMS5003;70568;51.378;-1.342;2023-08-20T04:18:37;7;7;
61592;PMS5003;70568;51.378;-1.342;2023-08-20T04:21:04;12;10;
61592;PMS5003;70568;51.378;-1.342;2023-08-20T04:23:30;9;8;
61592;PMS5003;70568;51.378;-1.342;2023-08-20T04:25:58;9;8;
61592;PMS5003;70568;51.378;-1.342;2023-08-20T04:28:25;7;7;
61592;PMS5003;70568;51.378;-1.342;2023-08-20T04:30:51;12;11;
61592;PMS5003;70568;51.378;-1.342;2023-08-20T04:33:19;11;8;
61592;PMS5003;70568;51.378;-1.342;2023-08-20T04:35:45;8;6;
61592;PMS5003;70568;51.378;-1.342;2023-08-20T04:38:12;12;10;
61592;PMS5003;70568;51.378;-1.342;2023-08-20T04:40:39;7;7;
61592;PMS5003;70568;51.378;-1.342;2023-08-20T04:43:06;10;8;
61592;PMS5003;70568;51.378;-1.342;2023-08-20T04:45:33;8;7;
61592;PMS5003;70568;51.378;-1.342;2023-08-20T04:47:59;8;7;
61592;PMS5003;70568;51.378;-1.342;2023-08-20T04:50:26;11;9;
61592;PMS5003;70568;51.378;-1.342;2023-08-20T04:52:53;13;10;
61592;PMS5003;70568;51.378;-1.342;2023-08-20T04:55:20;12;12;
61592;PMS5003;70568;51.378;-1.342;2023-08-20T04:57:47;9;7;
61592;PMS5003;70568;51.378;-1.342;2023-08-20T05:00:14;10;8;
61592;PMS5003;70568;51.378;-1.342;2023-08-20T05:02:41;8;7;
61592;PMS5003;70568;51.378;-1.342;2023-08-20T05:05:08;12;10;
61592;PMS5003;70568;51.378;-1.342;2023-08-20T05:07:36;12;12;
61592;PMS5003;70568;51.378;-1.342;2023-08-20T05:10:05;9;9;
61592;PMS5003;70568;51.378;-1.342;2023-08-20T05:12:32;10;9;
61592;PMS5003;70568;51.378;-1.342;2023-08-20T05:14:58;9;8;
61592;PMS5003;70568;51.378;-1.342;2023-08-20T05:17:25;12;11;
61592;PMS5003;70568;51.378;-1.342;2023-08-20T05:19:51;10;9;
61592;PMS5003;70568;51.378;-1.342;2023-08-20T05:22:18;12;10;
61592;PMS5003;70568;51.378;-1.342;2023-08-20T05:24:45;10;10;
61592;PMS5003;70568;51.378;-1.342;2023-08-20T05:27:12;10;8;
61592;PMS5003;70568;51.378;-1.342;2023-08-20T05:29:40;9;8;
61592;PMS5003;70568;51.378;-1.342;2023-08-20T05:32:07;13;10;
61592;PMS5003;70568;51.378;-1.342;2023-08-20T05:34:34;11;10;
61592;PMS5003;70568;51.378;-1.342;2023-08-20T05:37:01;10;9;
61592;PMS5003;70568;51.378;-1.342;2023-08-20T05:39:29;8;7;
61592;PMS5003;70568;51.378;-1.342;2023-08-20T05:41:56;9;8;
61592;PMS5003;70568;51.378;-1.342;2023-08-20T05:44:23;9;9;
61592;PMS5003;70568;51.378;-1.342;2023-08-20T05:46:50;9;7;
61592;PMS5003;70568;51.378;-1.342;2023-08-20T05:49:17;9;8;
61592;PMS5003;70568;51.378;-1.342;2023-08-20T05:51:44;8;6;
61592;PMS5003;70568;51.378;-1.342;2023-08-20T05:54:10;7;6;
61592;PMS5003;70568;51.378;-1.342;2023-08-20T05:56:38;7;7;
61592;PMS5003;70568;51.378;-1.342;2023-08-20T05:59:05;7;7;
61592;PMS5003;70568;51.378;-1.342;2023-08-20T06:01:32;8;8;
61592;PMS5003;70568;51.378;-1.342;2023-08-20T06:03:58;7;7;
61592;PMS5003;70568;51.378;-1.342;2023-08-20T06:06:25;10;9;
61592;PMS5003;70568;51.378;-1.342;2023-08-20T06:08:52;8;8;
61592;PMS5003;70568;51.378;-1.342;2023-08-20T06:11:20;8;8;
61592;PMS5003;70568;51.378;-1.342;2023-08-20T06:13:47;10;7;
61592;PMS5003;70568;51.378;-1.342;2023-08-20T06:16:13;8;8;
61592;PMS5003;70568;51.378;-1.342;2023-08-20T06:18:40;10;8;
61592;PMS5003;70568;51.378;-1.342;2023-08-20T06:21:06;8;8;
61592;PMS5003;70568;51.378;-1.342;2023-08-20T06:23:33;10;8;
61592;PMS5003;70568;51.378;-1.342;2023-08-20T06:25:59;7;6;
61592;PMS5003;70568;51.378;-1.342;2023-08-20T06:28:26;10;9;
61592;PMS5003;70568;51.378;-1.342;2023-08-20T06:30:53;8;8;
61592;PMS5003;70568;51.378;-1.342;2023-08-20T06:33:19;11;8;
61592;PMS5003;70568;51.378;-1.342;2023-08-20T06:35:45;6;6;
61592;PMS5003;70568;51.378;-1.342;2023-08-20T06:38:12;6;6;
61592;PMS5003;70568;51.378;-1.342;2023-08-20T06:40:39;10;8;
61592;PMS5003;70568;51.378;-1.342;2023-08-20T06:43:06;8;8;
61592;PMS5003;70568;51.378;-1.342;2023-08-20T06:45:33;6;6;
61592;PMS5003;70568;51.378;-1.342;2023-08-20T06:47:59;9;8;
61592;PMS5003;70568;51.378;-1.342;2023-08-20T06:50:26;9;9;
61592;PMS5003;70568;51.378;-1.342;2023-08-20T06:52:53;7;7;
61592;PMS5003;70568;51.378;-1.342;2023-08-20T06:55:20;7;7;
61592;PMS5003;70568;51.378;-1.342;2023-08-20T06:57:46;10;8;
61592;PMS5003;70568;51.378;-1.342;2023-08-20T07:00:13;6;4;
61592;PMS5003;70568;51.378;-1.342;2023-08-20T07:02:40;9;7;
61592;PMS5003;70568;51.378;-1.342;2023-08-20T07:05:06;8;7;
61592;PMS5003;70568;51.378;-1.342;2023-08-20T07:07:33;8;7;
61592;PMS5003;70568;51.378;-1.342;2023-08-20T07:10:00;6;6;
61592;PMS5003;70568;51.378;-1.342;2023-08-20T07:12:27;8;8;
61592;PMS5003;70568;51.378;-1.342;2023-08-20T07:14:54;11;10;
61592;PMS5003;70568;51.378;-1.342;2023-08-20T07:17:20;6;5;
61592;PMS5003;70568;51.378;-1.342;2023-08-20T07:19:47;10;10;
61592;PMS5003;70568;51.378;-1.342;2023-08-20T07:22:14;9;8;
61592;PMS5003;70568;51.378;-1.342;2023-08-20T07:24:41;8;7;
61592;PMS5003;70568;51.378;-1.342;2023-08-20T07:27:08;8;7;
61592;PMS5003;70568;51.378;-1.342;2023-08-20T07:29:34;9;7;
61592;PMS5003;70568;51.378;-1.342;2023-08-20T07:32:00;7;7;
61592;PMS5003;70568;51.378;-1.342;2023-08-20T07:34:27;9;7;
61592;PMS5003;70568;51.378;-1.342;2023-08-20T07:36:53;7;6;
61592;PMS5003;70568;51.378;-1.342;2023-08-20T07:39:20;7;7;
61592;PMS5003;70568;51.378;-1.342;2023-08-20T07:41:46;9;8;
61592;PMS5003;70568;51.378;-1.342;2023-08-20T07:44:12;6;6;
61592;PMS5003;70568;51.378;-1.342;2023-08-20T07:46:39;11;9;
61592;PMS5003;70568;51.378;-1.342;2023-08-20T07:49:05;7;7;
61592;PMS5003;70568;51.378;-1.342;2023-08-20T07:51:32;8;8;
61592;PMS5003;70568;51.378;-1.342;2023-08-20T07:53:58;7;6;
61592;PMS5003;70568;51.378;-1.342;2023-08-20T07:56:25;7;6;
61592;PMS5003;70568;51.378;-1.342;2023-08-20T07:58:52;9;8;
61592;PMS5003;70568;51.378;-1.342;2023-08-20T08:01:19;7;7;
61592;PMS5003;70568;51.378;-1.342;2023-08-20T08:03:45;9;9;
61592;PMS5003;70568;51.378;-1.342;2023-08-20T08:06:12;8;5;
61592;PMS5003;70568;51.378;-1.342;2023-08-20T08:08:41;6;6;
61592;PMS5003;70568;51.378;-1.342;2023-08-20T08:11:09;5;4;
61592;PMS5003;70568;51.378;-1.342;2023-08-20T08:13:35;7;6;
61592;PMS5003;70568;51.378;-1.342;2023-08-20T08:16:02;7;7;
61592;PMS5003;70568;51.378;-1.342;2023-08-20T08:18:30;8;8;
61592;PMS5003;70568;51.378;-1.342;2023-08-20T08:20:57;5;5;
61592;PMS5003;70568;51.378;-1.342;2023-08-20T08:23:23;4;4;
61592;PMS5003;70568;51.378;-1.342;2023-08-20T08:25:49;4;4;
61592;PMS5003;70568;51.378;-1.342;2023-08-20T08:28:16;8;4;
61592;PMS5003;70568;51.378;-1.342;2023-08-20T08:30:42;7;6;
61592;PMS5003;70568;51.378;-1.342;2023-08-20T08:33:09;5;4;
61592;PMS5003;70568;51.378;-1.342;2023-08-20T08:35:35;5;3;
61592;PMS5003;70568;51.378;-1.342;2023-08-20T08:38:03;4;3;
61592;PMS5003;70568;51.378;-1.342;2023-08-20T08:40:30;5;3;
61592;PMS5003;70568;51.378;-1.342;2023-08-20T08:42:57;5;4;
61592;PMS5003;70568;51.378;-1.342;2023-08-20T08:45:24;5;4;
61592;PMS5003;70568;51.378;-1.342;2023-08-20T08:47:53;4;4;
61592;PMS5003;70568;51.378;-1.342;2023-08-20T08:50:21;5;5;
61592;PMS5003;70568;51.378;-1.342;2023-08-20T08:52:48;6;4;
61592;PMS5003;70568;51.378;-1.342;2023-08-20T08:55:17;6;5;
61592;PMS5003;70568;51.378;-1.342;2023-08-20T08:57:44;4;4;
61592;PMS5003;70568;51.378;-1.342;2023-08-20T09:00:12;5;5;
61592;PMS5003;70568;51.378;-1.342;2023-08-20T09:02:40;4;4;
61592;PMS5003;70568;51.378;-1.342;2023-08-20T09:05:07;7;5;
61592;PMS5003;70568;51.378;-1.342;2023-08-20T09:07:34;3;3;
61592;PMS5003;70568;51.378;-1.342;2023-08-20T09:10:01;8;7;
61592;PMS5003;70568;51.378;-1.342;2023-08-20T09:12:28;5;3;
61592;PMS5003;70568;51.378;-1.342;2023-08-20T09:14:55;7;7;
61592;PMS5003;70568;51.378;-1.342;2023-08-20T09:17:22;5;3;
61592;PMS5003;70568;51.378;-1.342;2023-08-20T09:19:52;4;4;
61592;PMS5003;70568;51.378;-1.342;2023-08-20T09:22:21;5;4;
61592;PMS5003;70568;51.378;-1.342;2023-08-20T09:24:51;3;3;
61592;PMS5003;70568;51.378;-1.342;2023-08-20T09:27:20;5;4;
61592;PMS5003;70568;51.378;-1.342;2023-08-20T09:29:48;5;4;
61592;PMS5003;70568;51.378;-1.342;2023-08-20T09:32:17;5;5;
61592;PMS5003;70568;51.378;-1.342;2023-08-20T09:34:45;4;4;
61592;PMS5003;70568;51.378;-1.342;2023-08-20T09:37:13;6;5;
61592;PMS5003;70568;51.378;-1.342;2023-08-20T09:39:41;5;5;
61592;PMS5003;70568;51.378;-1.342;2023-08-20T09:42:09;5;3;
61592;PMS5003;70568;51.378;-1.342;2023-08-20T09:44:38;3;3;
61592;PMS5003;70568;51.378;-1.342;2023-08-20T09:47:06;4;4;
61592;PMS5003;70568;51.378;-1.342;2023-08-20T09:49:37;3;2;
61592;PMS5003;70568;51.378;-1.342;2023-08-20T09:52:06;5;5;
61592;PMS5003;70568;51.378;-1.342;2023-08-20T09:54:37;3;3;
61592;PMS5003;70568;51.378;-1.342;2023-08-20T09:57:19;3;3;
61592;PMS5003;70568;51.378;-1.342;2023-08-20T09:59:54;3;3;
61592;PMS5003;70568;51.378;-1.342;2023-08-20T10:02:21;3;3;
61592;PMS5003;70568;51.378;-1.342;2023-08-20T10:04:48;3;3;
61592;PMS5003;70568;51.378;-1.342;2023-08-20T10:07:16;5;4;
61592;PMS5003;70568;51.378;-1.342;2023-08-20T10:09:43;4;3;
61592;PMS5003;70568;51.378;-1.342;2023-08-20T10:12:10;5;5;
61592;PMS5003;70568;51.378;-1.342;2023-08-20T10:14:38;5;4;
61592;PMS5003;70568;51.378;-1.342;2023-08-20T10:17:06;6;6;
61592;PMS5003;70568;51.378;-1.342;2023-08-20T10:19:34;5;4;
61592;PMS5003;70568;51.378;-1.342;2023-08-20T10:22:02;8;6;
61592;PMS5003;70568;51.378;-1.342;2023-08-20T10:24:39;9;9;
61592;PMS5003;70568;51.378;-1.342;2023-08-20T10:27:08;6;6;
61592;PMS5003;70568;51.378;-1.342;2023-08-20T10:29:36;3;3;
61592;PMS5003;70568;51.378;-1.342;2023-08-20T10:32:05;3;2;
61592;PMS5003;70568;51.378;-1.342;2023-08-20T10:34:32;3;3;
61592;PMS5003;70568;51.378;-1.342;2023-08-20T10:37:00;4;3;
61592;PMS5003;70568;51.378;-1.342;2023-08-20T10:39:28;5;5;
61592;PMS5003;70568;51.378;-1.342;2023-08-20T10:42:07;4;4;
61592;PMS5003;70568;51.378;-1.342;2023-08-20T10:44:56;3;2;
61592;PMS5003;70568;51.378;-1.342;2023-08-20T10:47:23;3;3;
61592;PMS5003;70568;51.378;-1.342;2023-08-20T10:49:51;5;4;
61592;PMS5003;70568;51.378;-1.342;2023-08-20T10:52:18;4;3;
61592;PMS5003;70568;51.378;-1.342;2023-08-20T10:54:44;3;3;
61592;PMS5003;70568;51.378;-1.342;2023-08-20T10:57:11;5;4;
61592;PMS5003;70568;51.378;-1.342;2023-08-20T10:59:39;2;2;
61592;PMS5003;70568;51.378;-1.342;2023-08-20T11:02:07;4;4;
61592;PMS5003;70568;51.378;-1.342;2023-08-20T11:04:41;5;3;
61592;PMS5003;70568;51.378;-1.342;2023-08-20T11:07:08;4;4;
61592;PMS5003;70568;51.378;-1.342;2023-08-20T11:09:36;4;4;
61592;PMS5003;70568;51.378;-1.342;2023-08-20T11:12:04;4;4;
61592;PMS5003;70568;51.378;-1.342;2023-08-20T11:14:31;6;5;
61592;PMS5003;70568;51.378;-1.342;2023-08-20T11:16:57;4;4;
61592;PMS5003;70568;51.378;-1.342;2023-08-20T11:19:24;5;4;
61592;PMS5003;70568;51.378;-1.342;2023-08-20T11:21:51;6;5;
61592;PMS5003;70568;51.378;-1.342;2023-08-20T11:24:18;5;4;
61592;PMS5003;70568;51.378;-1.342;2023-08-20T11:26:45;2;2;
61592;PMS5003;70568;51.378;-1.342;2023-08-20T11:29:13;3;3;
61592;PMS5003;70568;51.378;-1.342;2023-08-20T11:31:42;6;5;
61592;PMS5003;70568;51.378;-1.342;2023-08-20T11:34:09;4;3;
61592;PMS5003;70568;51.378;-1.342;2023-08-20T11:36:38;5;4;
61592;PMS5003;70568;51.378;-1.342;2023-08-20T11:39:05;3;3;
61592;PMS5003;70568;51.378;-1.342;2023-08-20T11:41:35;7;6;
61592;PMS5003;70568;51.378;-1.342;2023-08-20T11:44:03;3;3;
61592;PMS5003;70568;51.378;-1.342;2023-08-20T11:46:30;3;3;
61592;PMS5003;70568;51.378;-1.342;2023-08-20T11:48:58;2;2;
61592;PMS5003;70568;51.378;-1.342;2023-08-20T11:51:25;3;3;
61592;PMS5003;70568;51.378;-1.342;2023-08-20T11:53:52;3;3;
61592;PMS5003;70568;51.378;-1.342;2023-08-20T11:56:18;3;2;
61592;PMS5003;70568;51.378;-1.342;2023-08-20T11:58:49;1;1;
61592;PMS5003;70568;51.378;-1.342;2023-08-20T12:01:17;2;2;
61592;PMS5003;70568;51.378;-1.342;2023-08-20T12:03:44;5;4;
61592;PMS5003;70568;51.378;-1.342;2023-08-20T12:06:19;4;4;
61592;PMS5003;70568;51.378;-1.342;2023-08-20T12:08:46;3;3;
61592;PMS5003;70568;51.378;-1.342;2023-08-20T12:11:12;4;4;
61592;PMS5003;70568;51.378;-1.342;2023-08-20T12:13:40;2;2;
61592;PMS5003;70568;51.378;-1.342;2023-08-20T12:16:07;3;2;
61592;PMS5003;70568;51.378;-1.342;2023-08-20T12:18:33;3;3;
61592;PMS5003;70568;51.378;-1.342;2023-08-20T12:21:00;5;3;
61592;PMS5003;70568;51.378;-1.342;2023-08-20T12:23:26;5;4;
61592;PMS5003;70568;51.378;-1.342;2023-08-20T12:25:53;2;2;
61592;PMS5003;70568;51.378;-1.342;2023-08-20T12:28:20;2;2;
61592;PMS5003;70568;51.378;-1.342;2023-08-20T12:30:46;3;2;
61592;PMS5003;70568;51.378;-1.342;2023-08-20T12:33:13;1;1;
61592;PMS5003;70568;51.378;-1.342;2023-08-20T12:35:40;3;2;
61592;PMS5003;70568;51.378;-1.342;2023-08-20T12:38:07;2;2;
61592;PMS5003;70568;51.378;-1.342;2023-08-20T12:40:34;3;2;
61592;PMS5003;70568;51.378;-1.342;2023-08-20T12:43:02;2;2;
61592;PMS5003;70568;51.378;-1.342;2023-08-20T12:45:29;1;1;
61592;PMS5003;70568;51.378;-1.342;2023-08-20T12:47:56;1;1;
61592;PMS5003;70568;51.378;-1.342;2023-08-20T12:50:22;2;2;
61592;PMS5003;70568;51.378;-1.342;2023-08-20T12:52:49;2;2;
61592;PMS5003;70568;51.378;-1.342;2023-08-20T12:55:15;2;2;
61592;PMS5003;70568;51.378;-1.342;2023-08-20T12:57:52;2;2;
61592;PMS5003;70568;51.378;-1.342;2023-08-20T13:00:20;2;2;
61592;PMS5003;70568;51.378;-1.342;2023-08-20T13:02:47;2;2;
61592;PMS5003;70568;51.378;-1.342;2023-08-20T13:05:14;3;2;
61592;PMS5003;70568;51.378;-1.342;2023-08-20T13:07:42;2;1;
61592;PMS5003;70568;51.378;-1.342;2023-08-20T13:10:09;3;1;
61592;PMS5003;70568;51.378;-1.342;2023-08-20T13:12:37;1;1;
61592;PMS5003;70568;51.378;-1.342;2023-08-20T13:15:08;2;2;
61592;PMS5003;70568;51.378;-1.342;2023-08-20T13:17:36;2;2;
61592;PMS5003;70568;51.378;-1.342;2023-08-20T13:20:04;1;1;
61592;PMS5003;70568;51.378;-1.342;2023-08-20T13:22:32;3;2;
61592;PMS5003;70568;51.378;-1.342;2023-08-20T13:24:58;3;2;
61592;PMS5003;70568;51.378;-1.342;2023-08-20T13:27:24;1;1;
61592;PMS5003;70568;51.378;-1.342;2023-08-20T13:29:51;2;2;
61592;PMS5003;70568;51.378;-1.342;2023-08-20T13:32:19;1;1;
61592;PMS5003;70568;51.378;-1.342;2023-08-20T13:34:45;1;1;
61592;PMS5003;70568;51.378;-1.342;2023-08-20T13:37:11;2;2;
61592;PMS5003;70568;51.378;-1.342;2023-08-20T13:39:38;2;2;
61592;PMS5003;70568;51.378;-1.342;2023-08-20T13:42:05;4;3;
61592;PMS5003;70568;51.378;-1.342;2023-08-20T13:44:32;4;3;
61592;PMS5003;70568;51.378;-1.342;2023-08-20T13:46:59;2;2;
61592;PMS5003;70568;51.378;-1.342;2023-08-20T13:49:26;2;2;
61592;PMS5003;70568;51.378;-1.342;2023-08-20T13:51:53;2;2;
61592;PMS5003;70568;51.378;-1.342;2023-08-20T13:54:19;2;2;
61592;PMS5003;70568;51.378;-1.342;2023-08-20T13:56:46;2;2;
61592;PMS5003;70568;51.378;-1.342;2023-08-20T13:59:13;4;3;
61592;PMS5003;70568;51.378;-1.342;2023-08-20T14:01:40;1;1;
61592;PMS5003;70568;51.378;-1.342;2023-08-20T14:04:06;2;1;
61592;PMS5003;70568;51.378;-1.342;2023-08-20T14:06:33;3;3;
61592;PMS5003;70568;51.378;-1.342;2023-08-20T14:09:00;1;1;
61592;PMS5003;70568;51.378;-1.342;2023-08-20T14:11:28;1;1;
61592;PMS5003;70568;51.378;-1.342;2023-08-20T14:13:56;4;3;
61592;PMS5003;70568;51.378;-1.342;2023-08-20T14:16:23;2;2;
61592;PMS5003;70568;51.378;-1.342;2023-08-20T14:18:52;2;2;
61592;PMS5003;70568;51.378;-1.342;2023-08-20T14:21:18;2;2;
61592;PMS5003;70568;51.378;-1.342;2023-08-20T14:23:45;2;2;
61592;PMS5003;70568;51.378;-1.342;2023-08-20T14:26:11;2;2;
61592;PMS5003;70568;51.378;-1.342;2023-08-20T14:28:38;1;1;
61592;PMS5003;70568;51.378;-1.342;2023-08-20T14:31:05;0;0;
61592;PMS5003;70568;51.378;-1.342;2023-08-20T14:33:32;1;1;
61592;PMS5003;70568;51.378;-1.342;2023-08-20T14:35:59;3;3;
61592;PMS5003;70568;51.378;-1.342;2023-08-20T14:38:27;1;1;
61592;PMS5003;70568;51.378;-1.342;2023-08-20T14:40:58;1;1;
61592;PMS5003;70568;51.378;-1.342;2023-08-20T14:43:25;2;2;
61592;PMS5003;70568;51.378;-1.342;2023-08-20T14:45:52;2;2;
61592;PMS5003;70568;51.378;-1.342;2023-08-20T14:48:19;5;5;
61592;PMS5003;70568;51.378;-1.342;2023-08-20T14:50:46;2;2;
61592;PMS5003;70568;51.378;-1.342;2023-08-20T14:53:12;2;2;
61592;PMS5003;70568;51.378;-1.342;2023-08-20T14:55:39;2;2;
61592;PMS5003;70568;51.378;-1.342;2023-08-20T14:58:05;4;3;
61592;PMS5003;70568;51.378;-1.342;2023-08-20T15:00:32;4;4;
61592;PMS5003;70568;51.378;-1.342;2023-08-20T15:02:58;5;2;
61592;PMS5003;70568;51.378;-1.342;2023-08-20T15:05:26;3;3;
61592;PMS5003;70568;51.378;-1.342;2023-08-20T15:07:53;3;2;
61592;PMS5003;70568;51.378;-1.342;2023-08-20T15:10:19;2;2;
61592;PMS5003;70568;51.378;-1.342;2023-08-20T15:12:46;2;2;
61592;PMS5003;70568;51.378;-1.342;2023-08-20T15:15:13;3;3;
61592;PMS5003;70568;51.378;-1.342;2023-08-20T15:17:39;1;1;
61592;PMS5003;70568;51.378;-1.342;2023-08-20T15:20:06;2;2;
61592;PMS5003;70568;51.378;-1.342;2023-08-20T15:22:33;2;2;
61592;PMS5003;70568;51.378;-1.342;2023-08-20T15:25:00;3;3;
61592;PMS5003;70568;51.378;-1.342;2023-08-20T15:27:26;3;3;
61592;PMS5003;70568;51.378;-1.342;2023-08-20T15:29:52;4;4;
61592;PMS5003;70568;51.378;-1.342;2023-08-20T15:32:19;3;3;
61592;PMS5003;70568;51.378;-1.342;2023-08-20T15:34:45;4;3;
61592;PMS5003;70568;51.378;-1.342;2023-08-20T15:37:12;2;2;
61592;PMS5003;70568;51.378;-1.342;2023-08-20T15:39:39;2;2;
61592;PMS5003;70568;51.378;-1.342;2023-08-20T15:42:06;2;1;
61592;PMS5003;70568;51.378;-1.342;2023-08-20T15:44:33;2;2;
61592;PMS5003;70568;51.378;-1.342;2023-08-20T15:47:00;5;3;
61592;PMS5003;70568;51.378;-1.342;2023-08-20T15:49:27;2;2;
61592;PMS5003;70568;51.378;-1.342;2023-08-20T15:51:53;4;4;
61592;PMS5003;70568;51.378;-1.342;2023-08-20T15:54:19;3;3;
61592;PMS5003;70568;51.378;-1.342;2023-08-20T15:56:46;4;4;
61592;PMS5003;70568;51.378;-1.342;2023-08-20T15:59:13;3;3;
61592;PMS5003;70568;51.378;-1.342;2023-08-20T16:01:40;5;4;
61592;PMS5003;70568;51.378;-1.342;2023-08-20T16:04:06;3;3;
61592;PMS5003;70568;51.378;-1.342;2023-08-20T16:06:33;2;2;
61592;PMS5003;70568;51.378;-1.342;2023-08-20T16:09:01;2;2;
61592;PMS5003;70568;51.378;-1.342;2023-08-20T16:11:28;3;2;
61592;PMS5003;70568;51.378;-1.342;2023-08-20T16:13:55;3;3;
61592;PMS5003;70568;51.378;-1.342;2023-08-20T16:16:22;2;2;
61592;PMS5003;70568;51.378;-1.342;2023-08-20T16:18:49;5;4;
61592;PMS5003;70568;51.378;-1.342;2023-08-20T16:21:15;2;2;
61592;PMS5003;70568;51.378;-1.342;2023-08-20T16:23:41;3;2;
61592;PMS5003;70568;51.378;-1.342;2023-08-20T16:26:09;2;2;
61592;PMS5003;70568;51.378;-1.342;2023-08-20T16:28:36;3;2;
61592;PMS5003;70568;51.378;-1.342;2023-08-20T16:31:03;4;4;